Time;durP1;ratioP1;P1;durP2;ratioP2;P2;SDS_P1;SDS_P2;PMS_P1;PMS_P2;Temp;Humidity;BMP_temperature;BMP_pressure;BME280_temperature;BME280_humidity;BME280_pressure;Samples;Min_cycle;Max_cycle;Signal;HPM_P1;HPM_P2
2024/04/26 00:00:54;;;;;;;23.40;17.55;;;;;;;-146.25;100.00;52475.66;2182388;27;20007;-73
2024/04/26 00:01:56;;;;;;;25.50;18.08;;;;;;;-146.25;100.00;52467.56;2181809;27;35330;-73
2024/04/26 00:02:58;;;;;;;24.80;17.50;;;;;;;-146.25;100.00;52479.72;2181774;27;33484;-72
2024/04/26 00:04:01;;;;;;;21.80;17.05;;;;;;;-146.25;100.00;52489.84;2182294;27;35789;-73
2024/04/26 00:05:03;;;;;;;21.83;17.38;;;;;;;-146.25;100.00;52439.16;2152977;27;37218;-72
2024/04/26 00:06:06;;;;;;;24.63;17.55;;;;;;;-146.25;100.00;52465.53;2154887;27;20927;-73
2024/04/26 00:07:08;;;;;;;25.67;17.42;;;;;;;-146.25;100.00;52463.50;2181665;27;34101;-73
2024/04/26 00:08:10;;;;;;;24.70;16.90;;;;;;;-146.25;100.00;52453.34;2167128;27;34060;-71
2024/04/26 00:09:11;;;;;;;23.02;17.75;;;;;;;-146.25;100.00;52431.06;2166805;27;33919;-70
2024/04/26 00:10:13;;;;;;;27.02;19.20;;;;;;;-146.25;100.00;52427.00;2182787;27;28178;-72
2024/04/26 00:11:17;;;;;;;24.70;18.40;;;;;;;-146.25;100.00;52457.41;2183411;27;20014;-71
2024/04/26 00:12:19;;;;;;;26.38;18.83;;;;;;;-146.25;100.00;52465.53;2182929;27;34651;-72
2024/04/26 00:13:21;;;;;;;26.67;18.02;;;;;;;-146.25;100.00;52433.06;2182857;27;32949;-71
2024/04/26 00:14:23;;;;;;;28.95;17.48;;;;;;;-146.25;100.00;52412.81;2183095;27;36370;-73
2024/04/26 00:15:25;;;;;;;21.17;16.58;;;;;;;-146.25;100.00;52439.16;2182431;27;37539;-71
2024/04/26 00:16:27;;;;;;;24.63;16.75;;;;;;;-146.25;100.00;52461.47;2169036;27;20019;-71
2024/04/26 00:17:29;;;;;;;25.95;16.98;;;;;;;-146.25;100.00;52441.19;2168460;27;32340;-72
2024/04/26 00:18:31;;;;;;;24.30;17.27;;;;;;;-146.25;100.00;52441.19;2183092;27;33081;-71
2024/04/26 00:19:33;;;;;;;23.60;17.42;;;;;;;-146.25;100.00;52443.22;2182812;27;32814;-72
2024/04/26 00:20:36;;;;;;;25.95;17.15;;;;;;;-146.25;100.00;52449.31;2182922;27;34206;-72
2024/04/26 00:21:43;;;;;;;26.50;16.48;;;;;;;-146.25;100.00;52465.53;2182768;27;34678;-71
2024/04/26 00:22:45;;;;;;;24.55;16.88;;;;;;;-146.25;100.00;52465.53;2183346;27;29653;-72
2024/04/26 00:23:48;;;;;;;26.65;17.50;;;;;;;-146.25;100.00;52443.22;2182498;27;33306;-72
2024/04/26 00:24:50;;;;;;;22.33;16.38;;;;;;;-146.25;100.00;52429.03;2182883;27;34657;-72
2024/04/26 00:25:52;;;;;;;24.05;16.70;;;;;;;-146.25;100.00;52457.41;2183494;27;20040;-72
2024/04/26 00:26:54;;;;;;;23.65;17.48;;;;;;;-146.25;100.00;52469.56;2183556;27;31905;-72
2024/04/26 00:27:56;;;;;;;27.30;17.23;;;;;;;-146.25;100.00;52416.84;2168007;27;32562;-72
2024/04/26 00:28:58;;;;;;;23.10;16.17;;;;;;;-146.25;100.00;52424.97;2168475;27;35348;-72
2024/04/26 00:30:00;;;;;;;25.17;16.75;;;;;;;-146.25;100.00;52461.47;2168072;27;28560;-72
2024/04/26 00:31:02;;;;;;;21.35;15.68;;;;;;;-146.25;100.00;52477.69;2169030;27;20110;-71
2024/04/26 00:32:04;;;;;;;25.40;16.20;;;;;;;-146.25;100.00;52424.97;2182686;27;36011;-71
2024/04/26 00:33:08;;;;;;;23.27;15.57;;;;;;;-146.25;100.00;52433.06;2183020;27;33329;-71
2024/04/26 00:34:10;;;;;;;24.67;16.17;;;;;;;-146.25;100.00;52443.22;2167887;27;34085;-71
2024/04/26 00:35:13;;;;;;;22.95;15.80;;;;;;;-146.25;100.00;52473.63;2168062;27;36940;-71
2024/04/26 00:36:15;;;;;;;22.38;15.38;;;;;;;-146.25;100.00;52457.41;2168004;27;32186;-71
2024/04/26 00:37:16;;;;;;;25.88;16.75;;;;;;;-146.25;100.00;52424.97;2168231;27;34535;-71
2024/04/26 00:38:18;;;;;;;22.60;15.82;;;;;;;-146.25;100.00;52471.59;2182646;27;31993;-71
2024/04/26 00:39:23;;;;;;;23.58;15.40;;;;;;;-146.25;100.00;52447.28;2183428;27;20010;-71
2024/04/26 00:40:26;;;;;;;23.50;15.98;;;;;;;-146.25;100.00;52447.28;2168598;27;20019;-71
2024/04/26 00:41:28;;;;;;;22.20;14.85;;;;;;;-146.25;100.00;52441.19;2168676;27;36604;-70
2024/04/26 00:42:33;;;;;;;22.98;15.45;;;;;;;-146.25;100.00;52447.28;2182647;27;35297;-71
2024/04/26 00:43:34;;;;;;;23.92;15.80;;;;;;;-146.25;100.00;52453.34;2183201;27;32924;-71
2024/04/26 00:44:36;;;;;;;21.70;15.68;;;;;;;-146.25;100.00;52441.19;2182492;27;36928;-71
2024/04/26 00:45:38;;;;;;;22.08;15.30;;;;;;;-146.25;100.00;52463.50;2183538;27;20925;-70
2024/04/26 00:46:50;;;;;;;21.35;14.65;;;;;;;-146.25;100.00;52487.81;2182514;27;34531;-72
2024/04/26 00:47:55;;;;;;;22.77;14.88;;;;;;;-146.25;100.00;52439.16;2183026;27;33209;-71
2024/04/26 00:48:57;;;;;;;23.60;14.82;;;;;;;-146.25;100.00;52461.47;2168204;27;33967;-71
2024/04/26 00:50:00;;;;;;;24.55;16.05;;;;;;;-146.25;100.00;52449.31;2168277;27;34519;-71
2024/04/26 00:51:06;;;;;;;21.08;14.65;;;;;;;-146.25;100.00;52427.00;2183351;27;20007;-71
2024/04/26 00:52:11;;;;;;;23.20;14.98;;;;;;;-146.25;100.00;52433.06;2168055;27;33105;-71
2024/04/26 00:53:12;;;;;;;23.45;15.52;;;;;;;-146.25;100.00;52469.56;2169291;27;33740;-72
2024/04/26 00:54:23;;;;;;;24.30;16.50;;;;;;;-146.25;100.00;52416.84;2181750;27;35526;-71
2024/04/26 00:55:25;;;;;;;22.88;15.20;;;;;;;-146.25;100.00;52416.84;2168441;27;20011;-71
2024/04/26 00:56:29;;;;;;;23.00;15.32;;;;;;;-146.25;100.00;52489.84;2170709;27;37037;-71
2024/04/26 00:57:31;;;;;;;23.95;15.40;;;;;;;-146.25;100.00;52420.91;2154069;27;33015;-73
2024/04/26 00:58:36;;;;;;;23.90;14.85;;;;;;;-146.25;100.00;52461.47;2154969;27;35780;-71
2024/04/26 00:59:38;;;;;;;20.05;14.35;;;;;;;-146.25;100.00;52457.41;2155062;27;34501;-71
2024/04/26 01:00:41;;;;;;;22.95;15.38;;;;;;;-146.25;100.00;52473.63;2169759;27;20015;-71
2024/04/26 01:01:43;;;;;;;21.40;15.05;;;;;;;-146.25;100.00;52437.13;2182591;27;37509;-71
2024/04/26 01:02:45;;;;;;;24.17;15.20;;;;;;;-146.25;100.00;52453.34;2182770;27;34977;-71
2024/04/26 01:03:52;;;;;;;19.20;13.95;;;;;;;-146.25;100.00;52463.50;2168522;27;20011;-71
2024/04/26 01:04:57;;;;;;;22.52;14.85;;;;;;;-146.25;100.00;52433.06;2169631;27;34266;-71
2024/04/26 01:06:01;;;;;;;20.33;14.40;;;;;;;-146.25;100.00;52463.50;2182647;27;31932;-71
2024/04/26 01:07:03;;;;;;;22.33;14.38;;;;;;;-146.25;100.00;52465.53;2182769;27;34310;-70
2024/04/26 01:08:08;;;;;;;22.10;15.00;;;;;;;-146.25;100.00;52489.84;2168527;27;20045;-71
2024/04/26 01:09:13;;;;;;;20.10;14.27;;;;;;;-146.25;100.00;52475.66;2169272;27;32709;-71
2024/04/26 01:10:15;;;;;;;22.38;15.02;;;;;;;-146.25;100.00;52429.03;2182805;27;32744;-72
2024/04/26 01:11:17;;;;;;;20.92;15.13;;;;;;;-146.25;100.00;52449.31;2183321;27;32251;-72
2024/04/26 01:12:22;;;;;;;20.50;14.48;;;;;;;-146.25;100.00;52459.44;2182691;27;36118;-71
2024/04/26 01:13:24;;;;;;;22.55;14.85;;;;;;;-146.25;100.00;52441.19;2167816;27;35233;-71
2024/04/26 01:14:27;;;;;;;23.05;14.85;;;;;;;-146.25;100.00;52473.63;2154159;27;31684;-71
2024/04/26 01:15:29;;;;;;;23.48;15.50;;;;;;;-146.25;100.00;52461.47;2168208;27;33294;-72
2024/04/26 01:16:31;;;;;;;22.17;14.68;;;;;;;-146.25;100.00;52467.56;2182507;27;36394;-71
2024/04/26 01:17:33;;;;;;;22.15;14.52;;;;;;;-146.25;100.00;52453.34;2167890;27;36055;-70
2024/04/26 01:18:35;;;;;;;20.23;13.57;;;;;;;-146.25;100.00;52439.16;2168525;27;32629;-70
2024/04/26 01:19:38;;;;;;;25.35;15.13;;;;;;;-146.25;100.00;52465.53;2167787;27;33863;-71
2024/04/26 01:20:39;;;;;;;22.45;14.50;;;;;;;-146.25;100.00;52455.38;2154465;27;32885;-71
2024/04/26 01:21:42;;;;;;;20.63;14.88;;;;;;;-146.25;100.00;52477.69;2167121;27;35832;-71
2024/04/26 01:22:48;;;;;;;21.50;14.65;;;;;;;-146.25;100.00;52447.28;2168178;27;21458;-71
2024/04/26 01:23:51;;;;;;;21.88;14.40;;;;;;;-146.25;100.00;52443.22;2169118;27;32573;-70
2024/04/26 01:24:53;;;;;;;20.10;14.68;;;;;;;-146.25;100.00;52431.06;2167678;27;33970;-71
2024/04/26 01:26:04;;;;;;;25.15;15.38;;;;;;;-146.25;100.00;52435.09;2154795;27;35266;-71
2024/04/26 01:27:08;;;;;;;23.00;14.95;;;;;;;-146.25;100.00;52441.19;2170210;27;33769;-71
2024/04/26 01:28:10;;;;;;;20.27;15.40;;;;;;;-146.25;100.00;52451.31;2182346;27;38827;-71
2024/04/26 01:29:13;;;;;;;24.20;15.18;;;;;;;-146.25;100.00;52437.13;2182560;27;33381;-69
2024/04/26 01:30:18;;;;;;;21.98;14.40;;;;;;;-146.25;100.00;52467.56;2182468;27;32786;-71
2024/04/26 01:31:20;;;;;;;22.02;15.43;;;;;;;-146.25;100.00;52477.69;2182614;27;34520;-71
2024/04/26 01:32:22;;;;;;;20.20;14.02;;;;;;;-146.25;100.00;52443.22;2182541;27;33839;-70
2024/04/26 01:33:24;;;;;;;23.67;15.02;;;;;;;-146.25;100.00;52461.47;2167867;27;36729;-71
2024/04/26 01:34:26;;;;;;;22.60;14.43;;;;;;;-146.25;100.00;52441.19;2168548;27;34038;-71
2024/04/26 01:35:28;;;;;;;22.60;15.70;;;;;;;-146.25;100.00;52445.25;2182794;27;27478;-71
2024/04/26 01:36:30;;;;;;;24.45;14.85;;;;;;;-146.25;100.00;52465.53;2182315;27;36709;-71
2024/04/26 01:37:32;;;;;;;21.33;15.18;;;;;;;-146.25;100.00;52451.31;2182599;27;33628;-70
2024/04/26 01:38:33;;;;;;;22.70;14.63;;;;;;;-146.25;100.00;52427.00;2182008;27;36519;-70
2024/04/26 01:39:35;;;;;;;25.52;14.95;;;;;;;-146.25;100.00;52427.00;2182595;27;35086;-71
2024/04/26 01:40:37;;;;;;;25.27;14.75;;;;;;;-146.25;100.00;52439.16;2182498;27;33856;-70
2024/04/26 01:41:39;;;;;;;25.50;14.38;;;;;;;-146.25;100.00;52427.00;2182574;27;34343;-70
2024/04/26 01:42:41;;;;;;;22.63;15.18;;;;;;;-146.25;100.00;52457.41;2167627;27;35682;-71
2024/04/26 01:43:45;;;;;;;23.33;15.35;;;;;;;-146.25;100.00;52455.38;2168168;27;34078;-70
2024/04/26 01:44:49;;;;;;;22.00;15.02;;;;;;;-146.25;100.00;52435.09;2182528;27;32104;-70
2024/04/26 01:45:51;;;;;;;21.08;14.57;;;;;;;-146.25;100.00;52447.28;2182596;27;34547;-71
2024/04/26 01:46:53;;;;;;;23.67;15.30;;;;;;;-146.25;100.00;52461.47;2182378;27;37907;-71
2024/04/26 01:47:55;;;;;;;22.85;15.43;;;;;;;-146.25;100.00;52451.31;2182649;27;31301;-71
2024/04/26 01:48:59;;;;;;;21.52;14.27;;;;;;;-146.25;100.00;52441.19;2182304;27;36160;-71
2024/04/26 01:50:01;;;;;;;24.10;15.80;;;;;;;-146.25;100.00;52433.06;2182434;27;33138;-70
2024/04/26 01:51:03;;;;;;;24.10;14.48;;;;;;;-146.25;100.00;52445.25;2168477;27;20015;-70
2024/04/26 01:52:05;;;;;;;19.88;14.52;;;;;;;-146.25;100.00;52461.47;2167926;27;35871;-70
2024/04/26 01:53:07;;;;;;;19.80;14.35;;;;;;;-146.25;100.00;52398.59;2182452;27;32053;-70
2024/04/26 01:54:08;;;;;;;22.13;15.00;;;;;;;-146.25;100.00;52449.31;2182364;27;31353;-71
2024/04/26 01:55:15;;;;;;;21.98;14.20;;;;;;;-146.25;100.00;52451.31;2167395;27;41535;-72
2024/04/26 01:56:22;;;;;;;21.13;14.88;;;;;;;-146.25;100.00;52457.41;2170699;27;20022;-72
2024/04/26 01:57:26;;;;;;;22.73;14.82;;;;;;;-146.25;100.00;52449.31;2167787;27;28544;-72
2024/04/26 01:58:28;;;;;;;20.67;14.07;;;;;;;-146.25;100.00;52447.28;2155330;27;32096;-73
2024/04/26 01:59:33;;;;;;;22.00;14.75;;;;;;;-146.25;100.00;52429.03;2167633;27;32092;-72
2024/04/26 02:00:35;;;;;;;23.55;15.48;;;;;;;-146.25;100.00;52424.97;2181420;27;36390;-72
2024/04/26 02:01:38;;;;;;;21.80;14.32;;;;;;;-146.25;100.00;52469.56;2182895;27;20014;-72
2024/04/26 02:02:40;;;;;;;22.98;15.55;;;;;;;-146.25;100.00;52437.13;2182479;27;34817;-72
2024/04/26 02:03:42;;;;;;;22.85;15.32;;;;;;;-146.25;100.00;52431.06;2182165;27;32027;-72
2024/04/26 02:04:44;;;;;;;18.50;14.02;;;;;;;-146.25;100.00;52435.09;2181980;27;36245;-72
2024/04/26 02:05:46;;;;;;;19.70;15.45;;;;;;;-146.25;100.00;52437.13;2182568;27;20018;-73
2024/04/26 02:06:48;;;;;;;23.63;15.32;;;;;;;-146.25;100.00;52439.16;2167185;27;35137;-72
2024/04/26 02:07:49;;;;;;;25.30;15.35;;;;;;;-146.25;100.00;52469.56;2167587;27;33880;-72
2024/04/26 02:08:51;;;;;;;21.42;14.93;;;;;;;-146.25;100.00;52424.97;2182162;27;35356;-72
2024/04/26 02:09:53;;;;;;;24.17;15.80;;;;;;;-146.25;100.00;52427.00;2182242;27;34869;-72
2024/04/26 02:10:55;;;;;;;21.17;15.10;;;;;;;-146.25;100.00;52461.47;2183214;27;20990;-73
2024/04/26 02:11:57;;;;;;;20.83;14.95;;;;;;;-146.25;100.00;52463.50;2167530;27;33896;-72
2024/04/26 02:12:59;;;;;;;23.40;15.55;;;;;;;-146.25;100.00;52441.19;2168254;27;35448;-72
2024/04/26 02:14:01;;;;;;;25.10;15.40;;;;;;;-146.25;100.00;52406.72;2182369;27;34339;-72
2024/04/26 02:15:03;;;;;;;22.52;14.75;;;;;;;-146.25;100.00;52447.28;2182188;27;36702;-72
2024/04/26 02:16:08;;;;;;;19.13;14.77;;;;;;;-146.25;100.00;52449.31;2182517;27;35588;-72
2024/04/26 02:17:13;;;;;;;21.38;15.00;;;;;;;-146.25;100.00;52424.97;2182581;27;33723;-72
2024/04/26 02:18:14;;;;;;;25.63;15.75;;;;;;;-146.25;100.00;52469.56;2183275;27;20007;-72
2024/04/26 02:19:16;;;;;;;24.15;15.32;;;;;;;-146.25;100.00;52414.84;2167602;27;35613;-72
2024/04/26 02:20:18;;;;;;;23.08;15.15;;;;;;;-146.25;100.00;52414.84;2167943;27;33255;-72
2024/04/26 02:21:20;;;;;;;21.70;15.60;;;;;;;-146.25;100.00;52433.06;2167606;27;34901;-72
2024/04/26 02:22:22;;;;;;;21.00;14.00;;;;;;;-146.25;100.00;52445.25;2167755;27;36368;-72
2024/04/26 02:23:24;;;;;;;20.92;14.85;;;;;;;-146.25;100.00;52455.38;2167675;27;35466;-73
2024/04/26 02:24:26;;;;;;;24.35;15.35;;;;;;;-146.25;100.00;52467.56;2167520;27;34156;-72
2024/04/26 02:25:28;;;;;;;18.90;15.27;;;;;;;-146.25;100.00;52449.31;2182276;27;35440;-72
2024/04/26 02:26:29;;;;;;;23.23;16.08;;;;;;;-146.25;100.00;52461.47;2182493;27;26103;-72
2024/04/26 02:27:31;;;;;;;20.88;15.40;;;;;;;-146.25;100.00;52463.50;2167847;27;29744;-72
2024/04/26 02:28:35;;;;;;;21.92;15.48;;;;;;;-146.25;100.00;52467.56;2167976;27;36514;-72
2024/04/26 02:29:36;;;;;;;21.10;15.27;;;;;;;-146.25;100.00;52433.06;2182964;27;20048;-72
2024/04/26 02:30:38;;;;;;;21.73;15.32;;;;;;;-146.25;100.00;52481.75;2167438;27;36572;-72
2024/04/26 02:31:40;;;;;;;24.67;15.52;;;;;;;-146.25;100.00;52459.44;2167990;27;30906;-72
2024/04/26 02:32:42;;;;;;;22.85;15.80;;;;;;;-146.25;100.00;52483.78;2182305;27;33407;-72
2024/04/26 02:33:44;;;;;;;21.55;15.55;;;;;;;-146.25;100.00;52469.56;2180600;27;38039;-72
2024/04/26 02:34:46;;;;;;;22.95;16.23;;;;;;;-146.25;100.00;52441.19;2167391;27;34437;-71
2024/04/26 02:35:48;;;;;;;23.23;15.57;;;;;;;-146.25;100.00;52414.84;2168061;27;32705;-71
2024/04/26 02:36:50;;;;;;;24.55;16.50;;;;;;;-146.25;100.00;52463.50;2167420;27;37526;-71
2024/04/26 02:37:53;;;;;;;20.65;15.52;;;;;;;-146.25;100.00;52445.25;2167898;27;33302;-71
2024/04/26 02:38:55;;;;;;;25.48;16.30;;;;;;;-146.25;100.00;52457.41;2181794;27;36986;-72
2024/04/26 02:39:57;;;;;;;24.40;15.63;;;;;;;-146.25;100.00;52457.41;2182859;27;20998;-72
2024/04/26 02:41:03;;;;;;;24.60;15.50;;;;;;;-146.25;100.00;52481.75;2182742;27;33085;-72
2024/04/26 02:42:06;;;;;;;23.63;15.48;;;;;;;-146.25;100.00;52465.53;2183061;27;20995;-70
2024/04/26 02:43:08;;;;;;;24.08;16.02;;;;;;;-146.25;100.00;52465.53;2182375;27;31787;-72
2024/04/26 02:44:10;;;;;;;24.30;15.73;;;;;;;-146.25;100.00;52447.28;2182326;27;37173;-71
2024/04/26 02:45:11;;;;;;;22.20;15.00;;;;;;;-146.25;100.00;52461.47;2182125;27;32853;-71
2024/04/26 02:46:14;;;;;;;24.95;16.60;;;;;;;-146.25;100.00;52473.63;2182396;27;36041;-71
2024/04/26 02:47:16;;;;;;;23.58;15.68;;;;;;;-146.25;100.00;52449.31;2167502;27;35983;-70
2024/04/26 02:48:25;;;;;;;20.98;15.48;;;;;;;-146.25;100.00;52453.34;2168813;27;20153;-70
2024/04/26 02:49:27;;;;;;;21.50;15.27;;;;;;;-146.25;100.00;52465.53;2181619;27;35415;-72
2024/04/26 02:50:29;;;;;;;21.98;15.27;;;;;;;-146.25;100.00;52433.06;2182455;27;20010;-72
2024/04/26 02:51:31;;;;;;;23.42;15.77;;;;;;;-146.25;100.00;52461.47;2181643;27;35317;-72
2024/04/26 02:52:33;;;;;;;24.48;16.25;;;;;;;-146.25;100.00;52427.00;2182326;27;33168;-72
2024/04/26 02:53:34;;;;;;;22.23;15.35;;;;;;;-146.25;100.00;52437.13;2182213;27;31881;-70
2024/04/26 02:54:36;;;;;;;21.30;15.50;;;;;;;-146.25;100.00;52445.25;2181999;27;34043;-72
2024/04/26 02:55:38;;;;;;;23.05;14.88;;;;;;;-146.25;100.00;52412.81;2182136;27;34059;-72
2024/04/26 02:56:40;;;;;;;24.02;15.73;;;;;;;-146.25;100.00;52469.56;2182345;27;34100;-72
2024/04/26 02:57:42;;;;;;;21.52;15.60;;;;;;;-146.25;100.00;52420.91;2182290;27;32063;-72
2024/04/26 02:58:44;;;;;;;22.02;15.68;;;;;;;-146.25;100.00;52477.69;2182286;27;35042;-72
2024/04/26 02:59:46;;;;;;;19.75;14.60;;;;;;;-146.25;100.00;52429.03;2182245;27;31180;-72
2024/04/26 03:00:50;;;;;;;24.83;15.88;;;;;;;-146.25;100.00;52429.03;2182220;27;35781;-72
2024/04/26 03:01:52;;;;;;;24.08;16.13;;;;;;;-146.25;100.00;52493.91;2168225;27;20003;-72
2024/04/26 03:02:54;;;;;;;20.92;14.57;;;;;;;-146.25;100.00;52473.63;2154585;27;33318;-72
2024/04/26 03:03:56;;;;;;;27.73;15.02;;;;;;;-146.25;100.00;52457.41;2167404;27;32884;-72
2024/04/26 03:04:58;;;;;;;20.35;15.30;;;;;;;-146.25;100.00;52495.94;2167770;27;35948;-72
2024/04/26 03:06:06;;;;;;;20.95;16.10;;;;;;;-146.25;100.00;52485.81;2181936;27;36376;-71
2024/04/26 03:07:10;;;;;;;24.60;15.20;;;;;;;-146.25;100.00;52418.88;2167587;27;34089;-72
2024/04/26 03:08:12;;;;;;;21.08;14.52;;;;;;;-146.25;100.00;52471.59;2169668;27;34987;-72
2024/04/26 03:09:14;;;;;;;22.92;14.82;;;;;;;-146.25;100.00;52459.44;2182402;27;20011;-72
2024/04/26 03:10:16;;;;;;;21.63;15.93;;;;;;;-146.25;100.00;52447.28;2182279;27;30449;-72
2024/04/26 03:11:20;;;;;;;21.10;15.15;;;;;;;-146.25;100.00;52465.53;2153787;27;31715;-72
2024/04/26 03:12:22;;;;;;;22.25;15.40;;;;;;;-146.25;100.00;52479.72;2155380;27;34263;-72
2024/04/26 03:13:27;;;;;;;22.33;15.60;;;;;;;-146.25;100.00;52437.13;2182285;27;35285;-70
2024/04/26 03:14:31;;;;;;;21.10;15.38;;;;;;;-146.25;100.00;52439.16;2167989;27;20837;-72
2024/04/26 03:15:33;;;;;;;21.65;14.20;;;;;;;-146.25;100.00;52459.44;2154487;27;37128;-70
2024/04/26 03:16:40;;;;;;;20.70;14.77;;;;;;;-146.25;100.00;52447.28;2153698;27;37517;-70
2024/04/26 03:17:43;;;;;;;18.73;14.27;;;;;;;-146.25;100.00;52433.06;2169054;27;36622;-71
2024/04/26 03:18:46;;;;;;;20.88;15.00;;;;;;;-146.25;100.00;52461.47;2167412;27;31186;-73
2024/04/26 03:19:47;;;;;;;21.92;14.75;;;;;;;-146.25;100.00;52418.88;2168571;27;20011;-71
2024/04/26 03:20:51;;;;;;;21.27;15.38;;;;;;;-146.25;100.00;52457.41;2182067;27;35679;-71
2024/04/26 03:21:53;;;;;;;22.70;15.15;;;;;;;-146.25;100.00;52477.69;2167482;27;34840;-71
2024/04/26 03:22:56;;;;;;;19.50;14.70;;;;;;;-146.25;100.00;52463.50;2167898;27;38894;-70
2024/04/26 03:23:58;;;;;;;23.02;14.75;;;;;;;-146.25;100.00;52424.97;2181877;27;36040;-71
2024/04/26 03:24:59;;;;;;;21.63;15.43;;;;;;;-146.25;100.00;52437.13;2182360;27;33714;-71
2024/04/26 03:26:11;;;;;;;24.65;14.27;;;;;;;-146.25;100.00;52427.00;2182853;27;20488;-71
2024/04/26 03:27:14;;;;;;;20.55;14.40;;;;;;;-146.25;100.00;52424.97;2182154;27;32372;-71
2024/04/26 03:28:16;;;;;;;21.27;15.05;;;;;;;-146.25;100.00;52439.16;2182172;27;36191;-71
2024/04/26 03:29:18;;;;;;;20.10;15.43;;;;;;;-146.25;100.00;52439.16;2181937;27;33840;-70
2024/04/26 03:30:20;;;;;;;24.10;15.65;;;;;;;-146.25;100.00;52439.16;2182219;27;34509;-71
2024/04/26 03:31:22;;;;;;;19.33;14.95;;;;;;;-146.25;100.00;52437.13;2182321;27;21063;-71
2024/04/26 03:32:24;;;;;;;20.38;15.25;;;;;;;-146.25;100.00;52469.56;2182236;27;33507;-71
2024/04/26 03:33:31;;;;;;;22.20;14.30;;;;;;;-146.25;100.00;52465.53;2181831;27;36795;-71
2024/04/26 03:34:34;;;;;;;21.42;14.10;;;;;;;-146.25;100.00;52416.84;2182841;27;20938;-71
2024/04/26 03:35:36;;;;;;;18.50;14.52;;;;;;;-146.25;100.00;52447.28;2181795;27;34566;-71
2024/04/26 03:36:38;;;;;;;21.42;15.25;;;;;;;-146.25;100.00;52437.13;2167822;27;34052;-72
2024/04/26 03:37:40;;;;;;;21.35;15.18;;;;;;;-146.25;100.00;52418.88;2167695;27;35083;-70
2024/04/26 03:38:45;;;;;;;19.08;15.25;;;;;;;-146.25;100.00;52481.75;2181951;27;37974;-71
2024/04/26 03:39:47;;;;;;;21.52;15.02;;;;;;;-146.25;100.00;52439.16;2181596;27;33076;-71
2024/04/26 03:40:48;;;;;;;19.17;15.27;;;;;;;-146.25;100.00;52467.56;2167277;27;37964;-71
2024/04/26 03:41:50;;;;;;;24.63;15.75;;;;;;;-146.25;100.00;52427.00;2168069;27;20023;-71
2024/04/26 03:42:52;;;;;;;19.67;15.27;;;;;;;-146.25;100.00;52433.06;2167325;27;37801;-70
2024/04/26 03:43:54;;;;;;;21.10;15.25;;;;;;;-146.25;100.00;52453.34;2167408;27;36098;-71
2024/04/26 03:44:56;;;;;;;21.75;16.00;;;;;;;-146.25;100.00;52441.19;2166672;27;35029;-71
2024/04/26 03:45:58;;;;;;;20.92;14.50;;;;;;;-146.25;100.00;52437.13;2167187;27;36475;-72
2024/04/26 03:47:04;;;;;;;22.90;16.48;;;;;;;-146.25;100.00;52477.69;2182094;27;34871;-71
2024/04/26 03:48:06;;;;;;;20.40;15.35;;;;;;;-146.25;100.00;52424.97;2182247;27;36079;-73
2024/04/26 03:49:10;;;;;;;22.15;16.05;;;;;;;-146.25;100.00;52469.56;2182065;27;34460;-73
2024/04/26 03:50:15;;;;;;;23.25;15.85;;;;;;;-146.25;100.00;52485.81;2167162;27;31922;-74
2024/04/26 03:51:17;;;;;;;21.05;15.15;;;;;;;-146.25;100.00;52451.31;2167236;27;37229;-73
2024/04/26 03:52:19;;;;;;;21.75;16.20;;;;;;;-146.25;100.00;52443.22;2167800;27;20047;-70
2024/04/26 03:53:25;;;;;;;20.05;15.85;;;;;;;-146.25;100.00;52433.06;2153703;27;38170;-72
2024/04/26 03:54:26;;;;;;;23.42;16.27;;;;;;;-146.25;100.00;52487.81;2166846;27;30573;-73
2024/04/26 03:55:28;;;;;;;21.95;15.90;;;;;;;-146.25;100.00;52475.66;2181288;27;33105;-72
2024/04/26 03:56:34;;;;;;;23.45;16.80;;;;;;;-146.25;100.00;52465.53;2181826;27;20935;-73
2024/04/26 03:57:38;;;;;;;22.60;16.63;;;;;;;-146.25;100.00;52463.50;2182680;27;20899;-73
2024/04/26 03:58:41;;;;;;;21.25;16.05;;;;;;;-146.25;100.00;52453.34;2181779;27;36340;-73
2024/04/26 03:59:43;;;;;;;23.42;16.58;;;;;;;-146.25;100.00;52455.38;2182021;27;34625;-73
2024/04/26 04:00:47;;;;;;;21.40;16.65;;;;;;;-146.25;100.00;52437.13;2182379;27;20006;-73
2024/04/26 04:01:51;;;;;;;25.13;17.20;;;;;;;-146.25;100.00;52437.13;2181992;27;38218;-73
2024/04/26 04:02:53;;;;;;;22.85;16.98;;;;;;;-146.25;100.00;52443.22;2181824;27;30967;-74
2024/04/26 04:03:55;;;;;;;22.65;15.88;;;;;;;-146.25;100.00;52461.47;2182081;27;35812;-73
2024/04/26 04:04:57;;;;;;;24.15;16.83;;;;;;;-146.25;100.00;52447.28;2181777;27;36560;-73
2024/04/26 04:05:59;;;;;;;23.80;16.60;;;;;;;-146.25;100.00;52487.81;2167276;27;32406;-73
2024/04/26 04:07:06;;;;;;;23.13;16.52;;;;;;;-146.25;100.00;52445.25;2167075;27;35955;-73
2024/04/26 04:08:08;;;;;;;24.33;17.67;;;;;;;-146.25;100.00;52500.00;2181827;27;35324;-73
2024/04/26 04:09:10;;;;;;;23.42;17.05;;;;;;;-146.25;100.00;52447.28;2166667;27;36107;-73
2024/04/26 04:10:14;;;;;;;22.55;16.92;;;;;;;-146.25;100.00;52408.75;2169250;27;20004;-73
2024/04/26 04:11:17;;;;;;;20.83;17.52;;;;;;;-146.25;100.00;52473.63;2181673;27;20033;-72
2024/04/26 04:12:19;;;;;;;22.80;16.02;;;;;;;-146.25;100.00;52453.34;2181979;27;37830;-73
2024/04/26 04:13:21;;;;;;;21.50;17.10;;;;;;;-146.25;100.00;52473.63;2181547;27;36805;-73
2024/04/26 04:14:22;;;;;;;23.63;17.45;;;;;;;-146.25;100.00;52443.22;2167216;27;33661;-73
2024/04/26 04:15:27;;;;;;;22.40;17.25;;;;;;;-146.25;100.00;52416.84;2167011;27;36034;-73
2024/04/26 04:16:28;;;;;;;22.40;17.25;;;;;;;-146.25;100.00;52408.75;2167751;27;20092;-72
2024/04/26 04:17:33;;;;;;;20.73;16.55;;;;;;;-146.25;100.00;52429.03;2167536;27;38764;-72
2024/04/26 04:18:35;;;;;;;23.48;17.80;;;;;;;-146.25;100.00;52485.81;2182036;27;30442;-73
2024/04/26 04:19:37;;;;;;;25.58;16.63;;;;;;;-146.25;100.00;52475.66;2181411;27;34928;-71
2024/04/26 04:20:39;;;;;;;19.73;14.63;;;;;;;-146.25;100.00;52453.34;2181791;27;36226;-71
2024/04/26 04:21:41;;;;;;;20.58;16.20;;;;;;;-146.25;100.00;52420.91;2181571;27;32829;-72
2024/04/26 04:22:43;;;;;;;21.23;15.60;;;;;;;-146.25;100.00;52435.09;2181645;27;36569;-72
2024/04/26 04:23:52;;;;;;;20.08;14.70;;;;;;;-146.25;100.00;52465.53;2167506;27;21162;-72
2024/04/26 04:24:54;;;;;;;23.10;15.40;;;;;;;-146.25;100.00;52424.97;2168788;27;34743;-72
2024/04/26 04:25:57;;;;;;;19.20;14.95;;;;;;;-146.25;100.00;52449.31;2153259;27;32844;-71
2024/04/26 04:26:58;;;;;;;19.65;14.10;;;;;;;-146.25;100.00;52443.22;2153633;27;36562;-72
2024/04/26 04:28:03;;;;;;;17.33;14.60;;;;;;;-146.25;100.00;52445.25;2181743;27;33299;-72
2024/04/26 04:29:05;;;;;;;21.25;14.85;;;;;;;-146.25;100.00;52473.63;2181652;27;36388;-71
2024/04/26 04:30:07;;;;;;;19.38;14.75;;;;;;;-146.25;100.00;52506.06;2181528;27;35153;-73
2024/04/26 04:31:11;;;;;;;16.30;13.45;;;;;;;-146.25;100.00;52445.25;2181700;27;35004;-72
2024/04/26 04:32:14;;;;;;;15.55;12.55;;;;;;;-146.25;100.00;52465.53;2182771;27;20003;-72
2024/04/26 04:33:18;;;;;;;15.82;12.48;;;;;;;-146.25;100.00;52471.59;2166814;27;37696;-72
2024/04/26 04:34:20;;;;;;;14.60;12.18;;;;;;;-146.25;100.00;52414.84;2167689;27;32796;-71
2024/04/26 04:35:22;;;;;;;16.33;11.60;;;;;;;-146.25;100.00;52418.88;2180795;27;33617;-72
2024/04/26 04:36:24;;;;;;;15.40;12.40;;;;;;;-146.25;100.00;52457.41;2181590;27;37301;-72
2024/04/26 04:37:26;;;;;;;15.30;12.20;;;;;;;-146.25;100.00;52433.06;2181722;27;32695;-72
2024/04/26 04:38:28;;;;;;;15.15;11.10;;;;;;;-146.25;100.00;52435.09;2166630;27;32566;-72
2024/04/26 04:39:32;;;;;;;14.45;11.00;;;;;;;-146.25;100.00;52467.56;2166561;27;33404;-71